sensor_id;sensor_type;location;lat;lon;timestamp;P1;durP1;ratioP1;P2;durP2;ratioP2
50495;SDS011;38806;51.554;5.704;2023-01-08T00:01:11;6.68;;;3.45;;
50495;SDS011;38806;51.554;5.704;2023-01-08T00:03:12;9.30;;;3.83;;
50495;SDS011;38806;51.554;5.704;2023-01-08T00:05:12;4.35;;;2.25;;
50495;SDS011;38806;51.554;5.704;2023-01-08T00:07:12;7.18;;;3.58;;
50495;SDS011;38806;51.554;5.704;2023-01-08T00:09:13;5.97;;;3.45;;
50495;SDS011;38806;51.554;5.704;2023-01-08T00:11:13;5.15;;;2.80;;
50495;SDS011;38806;51.554;5.704;2023-01-08T00:13:13;6.80;;;3.05;;
50495;SDS011;38806;51.554;5.704;2023-01-08T00:15:13;7.32;;;3.30;;
50495;SDS011;38806;51.554;5.704;2023-01-08T00:17:14;8.98;;;3.97;;
50495;SDS011;38806;51.554;5.704;2023-01-08T00:19:14;7.38;;;2.70;;
50495;SDS011;38806;51.554;5.704;2023-01-08T00:21:14;6.65;;;3.35;;
50495;SDS011;38806;51.554;5.704;2023-01-08T00:23:16;5.80;;;3.22;;
50495;SDS011;38806;51.554;5.704;2023-01-08T00:25:16;7.00;;;3.75;;
50495;SDS011;38806;51.554;5.704;2023-01-08T00:27:16;10.32;;;4.10;;
50495;SDS011;38806;51.554;5.704;2023-01-08T00:29:16;8.90;;;3.30;;
50495;SDS011;38806;51.554;5.704;2023-01-08T00:31:17;11.85;;;4.45;;
50495;SDS011;38806;51.554;5.704;2023-01-08T00:33:17;7.00;;;3.88;;
50495;SDS011;38806;51.554;5.704;2023-01-08T00:35:17;7.45;;;4.72;;
50495;SDS011;38806;51.554;5.704;2023-01-08T00:37:17;6.38;;;3.63;;
50495;SDS011;38806;51.554;5.704;2023-01-08T00:39:19;6.65;;;3.88;;
50495;SDS011;38806;51.554;5.704;2023-01-08T00:41:19;8.77;;;3.38;;
50495;SDS011;38806;51.554;5.704;2023-01-08T00:43:19;6.07;;;3.08;;
50495;SDS011;38806;51.554;5.704;2023-01-08T00:45:19;5.93;;;3.00;;
50495;SDS011;38806;51.554;5.704;2023-01-08T00:47:19;8.05;;;3.00;;
50495;SDS011;38806;51.554;5.704;2023-01-08T00:49:19;5.45;;;2.63;;
50495;SDS011;38806;51.554;5.704;2023-01-08T00:51:20;10.80;;;4.57;;
50495;SDS011;38806;51.554;5.704;2023-01-08T00:53:20;9.32;;;3.45;;
50495;SDS011;38806;51.554;5.704;2023-01-08T00:55:21;9.00;;;2.95;;
50495;SDS011;38806;51.554;5.704;2023-01-08T00:57:21;6.95;;;4.63;;
50495;SDS011;38806;51.554;5.704;2023-01-08T00:59:21;5.68;;;2.88;;
50495;SDS011;38806;51.554;5.704;2023-01-08T01:01:21;7.53;;;3.05;;
50495;SDS011;38806;51.554;5.704;2023-01-08T01:03:22;6.80;;;3.05;;
50495;SDS011;38806;51.554;5.704;2023-01-08T01:05:22;8.48;;;3.63;;
50495;SDS011;38806;51.554;5.704;2023-01-08T01:07:23;6.70;;;3.10;;
50495;SDS011;38806;51.554;5.704;2023-01-08T01:09:23;8.80;;;3.03;;
50495;SDS011;38806;51.554;5.704;2023-01-08T01:11:24;7.10;;;2.95;;
50495;SDS011;38806;51.554;5.704;2023-01-08T01:13:24;6.13;;;3.65;;
50495;SDS011;38806;51.554;5.704;2023-01-08T01:15:25;7.15;;;3.08;;
50495;SDS011;38806;51.554;5.704;2023-01-08T01:17:25;8.35;;;2.78;;
50495;SDS011;38806;51.554;5.704;2023-01-08T01:19:25;6.10;;;2.85;;
50495;SDS011;38806;51.554;5.704;2023-01-08T01:23:25;9.00;;;3.42;;
50495;SDS011;38806;51.554;5.704;2023-01-08T01:25:26;6.90;;;3.67;;
50495;SDS011;38806;51.554;5.704;2023-01-08T01:27:26;7.03;;;3.30;;
50495;SDS011;38806;51.554;5.704;2023-01-08T01:29:26;6.90;;;3.58;;
50495;SDS011;38806;51.554;5.704;2023-01-08T01:31:27;5.88;;;3.30;;
50495;SDS011;38806;51.554;5.704;2023-01-08T01:33:28;8.30;;;3.35;;
50495;SDS011;38806;51.554;5.704;2023-01-08T01:35:28;6.07;;;3.00;;
50495;SDS011;38806;51.554;5.704;2023-01-08T01:37:28;6.43;;;3.65;;
50495;SDS011;38806;51.554;5.704;2023-01-08T01:39:28;5.85;;;3.35;;
50495;SDS011;38806;51.554;5.704;2023-01-08T01:43:36;5.45;;;3.15;;
50495;SDS011;38806;51.554;5.704;2023-01-08T01:45:36;9.30;;;3.95;;
50495;SDS011;38806;51.554;5.704;2023-01-08T01:47:37;6.32;;;3.80;;
50495;SDS011;38806;51.554;5.704;2023-01-08T01:49:39;5.78;;;2.97;;
50495;SDS011;38806;51.554;5.704;2023-01-08T01:51:42;7.88;;;2.97;;
50495;SDS011;38806;51.554;5.704;2023-01-08T01:53:44;6.53;;;3.03;;
50495;SDS011;38806;51.554;5.704;2023-01-08T01:55:45;8.15;;;3.88;;
50495;SDS011;38806;51.554;5.704;2023-01-08T01:57:50;7.30;;;4.18;;
50495;SDS011;38806;51.554;5.704;2023-01-08T01:59:51;7.00;;;4.18;;
50495;SDS011;38806;51.554;5.704;2023-01-08T02:01:53;8.70;;;3.35;;
50495;SDS011;38806;51.554;5.704;2023-01-08T02:03:54;6.57;;;3.35;;
50495;SDS011;38806;51.554;5.704;2023-01-08T02:07:55;6.50;;;3.27;;
50495;SDS011;38806;51.554;5.704;2023-01-08T02:10:06;10.15;;;4.05;;
50495;SDS011;38806;51.554;5.704;2023-01-08T02:12:17;8.10;;;3.60;;
50495;SDS011;38806;51.554;5.704;2023-01-08T02:14:25;11.18;;;2.88;;
50495;SDS011;38806;51.554;5.704;2023-01-08T02:18:46;3.58;;;1.33;;
50495;SDS011;38806;51.554;5.704;2023-01-08T02:21:08;5.07;;;1.60;;
50495;SDS011;38806;51.554;5.704;2023-01-08T02:26:09;10.13;;;1.48;;
50495;SDS011;38806;51.554;5.704;2023-01-08T02:27:48;4.18;;;1.95;;
50495;SDS011;38806;51.554;5.704;2023-01-08T02:29:50;6.05;;;1.45;;
50495;SDS011;38806;51.554;5.704;2023-01-08T02:31:52;3.75;;;1.13;;
50495;SDS011;38806;51.554;5.704;2023-01-08T02:33:53;7.38;;;1.45;;
50495;SDS011;38806;51.554;5.704;2023-01-08T02:35:54;5.28;;;1.23;;
50495;SDS011;38806;51.554;5.704;2023-01-08T02:38:10;3.00;;;1.30;;
50495;SDS011;38806;51.554;5.704;2023-01-08T02:42:20;4.00;;;1.23;;
50495;SDS011;38806;51.554;5.704;2023-01-08T02:44:29;5.78;;;1.33;;
50495;SDS011;38806;51.554;5.704;2023-01-08T02:46:33;6.18;;;1.35;;
50495;SDS011;38806;51.554;5.704;2023-01-08T02:48:38;4.18;;;2.35;;
50495;SDS011;38806;51.554;5.704;2023-01-08T02:50:48;8.60;;;1.83;;
50495;SDS011;38806;51.554;5.704;2023-01-08T02:53:03;4.30;;;2.70;;
50495;SDS011;38806;51.554;5.704;2023-01-08T02:55:07;3.35;;;0.90;;
50495;SDS011;38806;51.554;5.704;2023-01-08T02:57:12;6.47;;;1.40;;
50495;SDS011;38806;51.554;5.704;2023-01-08T02:59:13;8.15;;;1.45;;
50495;SDS011;38806;51.554;5.704;2023-01-08T03:01:14;5.78;;;1.08;;
50495;SDS011;38806;51.554;5.704;2023-01-08T03:03:19;4.47;;;1.00;;
50495;SDS011;38806;51.554;5.704;2023-01-08T03:05:22;6.97;;;1.27;;
50495;SDS011;38806;51.554;5.704;2023-01-08T03:07:24;5.20;;;0.90;;
50495;SDS011;38806;51.554;5.704;2023-01-08T03:09:24;14.23;;;1.52;;
50495;SDS011;38806;51.554;5.704;2023-01-08T03:11:26;5.53;;;1.00;;
50495;SDS011;38806;51.554;5.704;2023-01-08T03:13:31;4.88;;;1.27;;
50495;SDS011;38806;51.554;5.704;2023-01-08T03:15:35;4.05;;;1.23;;
50495;SDS011;38806;51.554;5.704;2023-01-08T03:17:38;4.72;;;0.90;;
50495;SDS011;38806;51.554;5.704;2023-01-08T03:19:42;7.32;;;1.23;;
50495;SDS011;38806;51.554;5.704;2023-01-08T03:21:43;5.13;;;1.20;;
50495;SDS011;38806;51.554;5.704;2023-01-08T03:23:44;4.85;;;1.25;;
50495;SDS011;38806;51.554;5.704;2023-01-08T03:25:45;8.38;;;1.20;;
50495;SDS011;38806;51.554;5.704;2023-01-08T03:27:47;6.38;;;1.30;;
50495;SDS011;38806;51.554;5.704;2023-01-08T03:29:48;5.35;;;1.30;;
50495;SDS011;38806;51.554;5.704;2023-01-08T03:31:49;9.82;;;3.80;;
50495;SDS011;38806;51.554;5.704;2023-01-08T03:33:50;8.25;;;2.30;;
50495;SDS011;38806;51.554;5.704;2023-01-08T03:35:52;5.45;;;1.25;;
50495;SDS011;38806;51.554;5.704;2023-01-08T03:37:55;14.20;;;1.85;;
50495;SDS011;38806;51.554;5.704;2023-01-08T03:40:04;5.25;;;1.27;;
50495;SDS011;38806;51.554;5.704;2023-01-08T03:44:05;6.35;;;1.38;;
50495;SDS011;38806;51.554;5.704;2023-01-08T03:46:10;4.75;;;1.30;;
50495;SDS011;38806;51.554;5.704;2023-01-08T03:48:12;6.72;;;1.10;;
50495;SDS011;38806;51.554;5.704;2023-01-08T03:50:15;6.50;;;1.23;;
50495;SDS011;38806;51.554;5.704;2023-01-08T03:52:20;5.35;;;1.45;;
50495;SDS011;38806;51.554;5.704;2023-01-08T03:54:22;4.43;;;1.48;;
50495;SDS011;38806;51.554;5.704;2023-01-08T03:56:23;11.50;;;2.08;;
50495;SDS011;38806;51.554;5.704;2023-01-08T03:58:23;3.80;;;1.50;;
50495;SDS011;38806;51.554;5.704;2023-01-08T04:00:23;4.82;;;1.13;;
50495;SDS011;38806;51.554;5.704;2023-01-08T04:02:24;4.10;;;1.50;;
50495;SDS011;38806;51.554;5.704;2023-01-08T04:04:24;4.63;;;1.00;;
50495;SDS011;38806;51.554;5.704;2023-01-08T04:06:24;6.53;;;1.38;;
50495;SDS011;38806;51.554;5.704;2023-01-08T04:08:24;4.07;;;1.52;;
50495;SDS011;38806;51.554;5.704;2023-01-08T04:10:24;10.70;;;1.48;;
50495;SDS011;38806;51.554;5.704;2023-01-08T04:12:25;4.80;;;1.10;;
50495;SDS011;38806;51.554;5.704;2023-01-08T04:14:25;3.78;;;1.33;;
50495;SDS011;38806;51.554;5.704;2023-01-08T04:16:25;4.20;;;1.20;;
50495;SDS011;38806;51.554;5.704;2023-01-08T04:18:25;3.08;;;1.33;;
50495;SDS011;38806;51.554;5.704;2023-01-08T04:20:25;4.60;;;1.23;;
50495;SDS011;38806;51.554;5.704;2023-01-08T04:22:26;5.25;;;1.10;;
50495;SDS011;38806;51.554;5.704;2023-01-08T04:24:26;4.75;;;2.72;;
50495;SDS011;38806;51.554;5.704;2023-01-08T04:26:26;6.40;;;1.25;;
50495;SDS011;38806;51.554;5.704;2023-01-08T04:28:26;4.45;;;1.27;;
50495;SDS011;38806;51.554;5.704;2023-01-08T04:30:26;6.63;;;1.25;;
50495;SDS011;38806;51.554;5.704;2023-01-08T04:32:26;3.75;;;1.42;;
50495;SDS011;38806;51.554;5.704;2023-01-08T04:34:27;5.18;;;2.05;;
50495;SDS011;38806;51.554;5.704;2023-01-08T04:36:27;4.40;;;1.30;;
50495;SDS011;38806;51.554;5.704;2023-01-08T04:38:27;2.35;;;1.13;;
50495;SDS011;38806;51.554;5.704;2023-01-08T04:40:27;7.05;;;1.55;;
50495;SDS011;38806;51.554;5.704;2023-01-08T04:42:28;9.07;;;2.53;;
50495;SDS011;38806;51.554;5.704;2023-01-08T04:44:28;3.45;;;1.38;;
50495;SDS011;38806;51.554;5.704;2023-01-08T04:46:28;8.60;;;1.98;;
50495;SDS011;38806;51.554;5.704;2023-01-08T04:48:29;3.78;;;1.20;;
50495;SDS011;38806;51.554;5.704;2023-01-08T04:50:29;5.65;;;1.60;;
50495;SDS011;38806;51.554;5.704;2023-01-08T04:52:29;3.47;;;1.05;;
50495;SDS011;38806;51.554;5.704;2023-01-08T04:54:30;6.18;;;1.63;;
50495;SDS011;38806;51.554;5.704;2023-01-08T04:56:30;4.68;;;0.73;;
50495;SDS011;38806;51.554;5.704;2023-01-08T04:58:30;2.90;;;0.80;;
50495;SDS011;38806;51.554;5.704;2023-01-08T05:00:30;4.13;;;1.30;;
50495;SDS011;38806;51.554;5.704;2023-01-08T05:02:30;3.58;;;0.73;;
50495;SDS011;38806;51.554;5.704;2023-01-08T05:04:31;3.22;;;1.33;;
50495;SDS011;38806;51.554;5.704;2023-01-08T05:06:31;5.30;;;1.27;;
50495;SDS011;38806;51.554;5.704;2023-01-08T05:08:31;10.20;;;2.53;;
50495;SDS011;38806;51.554;5.704;2023-01-08T05:10:31;4.18;;;1.25;;
50495;SDS011;38806;51.554;5.704;2023-01-08T05:12:31;3.85;;;1.38;;
50495;SDS011;38806;51.554;5.704;2023-01-08T05:14:32;6.35;;;1.98;;
50495;SDS011;38806;51.554;5.704;2023-01-08T05:16:32;5.13;;;1.92;;
50495;SDS011;38806;51.554;5.704;2023-01-08T05:18:32;6.07;;;2.70;;
50495;SDS011;38806;51.554;5.704;2023-01-08T05:20:32;3.88;;;2.13;;
50495;SDS011;38806;51.554;5.704;2023-01-08T05:22:33;7.45;;;2.50;;
50495;SDS011;38806;51.554;5.704;2023-01-08T05:24:33;5.65;;;2.42;;
50495;SDS011;38806;51.554;5.704;2023-01-08T05:26:33;7.03;;;2.75;;
50495;SDS011;38806;51.554;5.704;2023-01-08T05:28:33;4.72;;;2.38;;
50495;SDS011;38806;51.554;5.704;2023-01-08T05:30:35;5.70;;;2.03;;
50495;SDS011;38806;51.554;5.704;2023-01-08T05:32:35;5.80;;;2.40;;
50495;SDS011;38806;51.554;5.704;2023-01-08T05:34:35;7.70;;;2.65;;
50495;SDS011;38806;51.554;5.704;2023-01-08T05:36:35;6.30;;;3.03;;
50495;SDS011;38806;51.554;5.704;2023-01-08T05:38:36;5.10;;;2.00;;
50495;SDS011;38806;51.554;5.704;2023-01-08T05:40:36;7.50;;;2.55;;
50495;SDS011;38806;51.554;5.704;2023-01-08T05:42:36;7.40;;;2.00;;
50495;SDS011;38806;51.554;5.704;2023-01-08T05:44:36;6.35;;;2.15;;
50495;SDS011;38806;51.554;5.704;2023-01-08T05:46:37;5.72;;;2.38;;
50495;SDS011;38806;51.554;5.704;2023-01-08T05:48:37;6.30;;;2.78;;
50495;SDS011;38806;51.554;5.704;2023-01-08T05:50:37;8.27;;;2.50;;
50495;SDS011;38806;51.554;5.704;2023-01-08T05:52:37;3.80;;;1.55;;
50495;SDS011;38806;51.554;5.704;2023-01-08T05:54:38;3.92;;;1.27;;
50495;SDS011;38806;51.554;5.704;2023-01-08T05:56:38;5.00;;;1.58;;
50495;SDS011;38806;51.554;5.704;2023-01-08T05:58:38;3.30;;;1.40;;
50495;SDS011;38806;51.554;5.704;2023-01-08T06:00:39;6.13;;;1.67;;
50495;SDS011;38806;51.554;5.704;2023-01-08T06:02:39;4.85;;;1.40;;
50495;SDS011;38806;51.554;5.704;2023-01-08T06:04:39;6.40;;;1.30;;
50495;SDS011;38806;51.554;5.704;2023-01-08T06:06:39;5.28;;;1.50;;
50495;SDS011;38806;51.554;5.704;2023-01-08T06:08:40;5.63;;;1.50;;
50495;SDS011;38806;51.554;5.704;2023-01-08T06:10:40;5.00;;;1.35;;
50495;SDS011;38806;51.554;5.704;2023-01-08T06:12:40;8.75;;;2.47;;
50495;SDS011;38806;51.554;5.704;2023-01-08T06:14:40;3.15;;;1.20;;
50495;SDS011;38806;51.554;5.704;2023-01-08T06:16:42;7.63;;;1.52;;
50495;SDS011;38806;51.554;5.704;2023-01-08T06:18:42;4.40;;;1.25;;
50495;SDS011;38806;51.554;5.704;2023-01-08T06:20:42;7.18;;;1.95;;
50495;SDS011;38806;51.554;5.704;2023-01-08T06:22:42;7.38;;;1.65;;
50495;SDS011;38806;51.554;5.704;2023-01-08T06:24:42;3.45;;;0.95;;
50495;SDS011;38806;51.554;5.704;2023-01-08T06:26:42;2.95;;;1.00;;
50495;SDS011;38806;51.554;5.704;2023-01-08T06:28:43;3.00;;;1.00;;
50495;SDS011;38806;51.554;5.704;2023-01-08T06:30:43;2.60;;;1.15;;
50495;SDS011;38806;51.554;5.704;2023-01-08T06:32:44;4.45;;;1.13;;
50495;SDS011;38806;51.554;5.704;2023-01-08T06:34:44;5.88;;;1.17;;
50495;SDS011;38806;51.554;5.704;2023-01-08T06:36:44;4.07;;;0.90;;
50495;SDS011;38806;51.554;5.704;2023-01-08T06:38:44;6.30;;;1.33;;
50495;SDS011;38806;51.554;5.704;2023-01-08T06:40:45;4.40;;;1.23;;
50495;SDS011;38806;51.554;5.704;2023-01-08T06:42:45;2.85;;;0.85;;
50495;SDS011;38806;51.554;5.704;2023-01-08T06:44:45;3.40;;;1.45;;
50495;SDS011;38806;51.554;5.704;2023-01-08T06:46:46;4.95;;;0.82;;
50495;SDS011;38806;51.554;5.704;2023-01-08T06:48:46;3.97;;;0.70;;
50495;SDS011;38806;51.554;5.704;2023-01-08T06:50:46;4.05;;;1.20;;
50495;SDS011;38806;51.554;5.704;2023-01-08T06:52:53;7.05;;;1.30;;
50495;SDS011;38806;51.554;5.704;2023-01-08T06:54:53;3.05;;;0.80;;
50495;SDS011;38806;51.554;5.704;2023-01-08T06:56:53;4.43;;;1.00;;
50495;SDS011;38806;51.554;5.704;2023-01-08T06:58:53;3.47;;;0.98;;
50495;SDS011;38806;51.554;5.704;2023-01-08T07:00:54;4.28;;;1.45;;
50495;SDS011;38806;51.554;5.704;2023-01-08T07:02:54;14.82;;;1.63;;
50495;SDS011;38806;51.554;5.704;2023-01-08T07:04:54;8.02;;;1.83;;
50495;SDS011;38806;51.554;5.704;2023-01-08T07:06:54;4.35;;;1.25;;
50495;SDS011;38806;51.554;5.704;2023-01-08T07:08:55;5.03;;;1.73;;
50495;SDS011;38806;51.554;5.704;2023-01-08T07:10:55;3.35;;;1.05;;
50495;SDS011;38806;51.554;5.704;2023-01-08T07:12:56;6.43;;;1.60;;
50495;SDS011;38806;51.554;5.704;2023-01-08T07:14:56;5.88;;;1.63;;
50495;SDS011;38806;51.554;5.704;2023-01-08T07:16:56;8.50;;;1.48;;
50495;SDS011;38806;51.554;5.704;2023-01-08T07:18:56;4.63;;;1.30;;
50495;SDS011;38806;51.554;5.704;2023-01-08T07:20:57;5.65;;;1.40;;
50495;SDS011;38806;51.554;5.704;2023-01-08T07:23:01;10.23;;;2.10;;
50495;SDS011;38806;51.554;5.704;2023-01-08T07:25:01;8.48;;;1.38;;
50495;SDS011;38806;51.554;5.704;2023-01-08T07:27:02;10.95;;;2.58;;
50495;SDS011;38806;51.554;5.704;2023-01-08T07:29:02;10.93;;;2.38;;
50495;SDS011;38806;51.554;5.704;2023-01-08T07:31:03;7.80;;;1.20;;
50495;SDS011;38806;51.554;5.704;2023-01-08T07:33:04;4.68;;;1.88;;
50495;SDS011;38806;51.554;5.704;2023-01-08T07:35:04;20.60;;;2.85;;
50495;SDS011;38806;51.554;5.704;2023-01-08T07:37:04;5.35;;;1.48;;
50495;SDS011;38806;51.554;5.704;2023-01-08T07:39:04;6.00;;;2.03;;
50495;SDS011;38806;51.554;5.704;2023-01-08T07:41:05;5.75;;;1.60;;
50495;SDS011;38806;51.554;5.704;2023-01-08T07:43:05;7.25;;;1.80;;
50495;SDS011;38806;51.554;5.704;2023-01-08T07:45:05;6.32;;;1.60;;
50495;SDS011;38806;51.554;5.704;2023-01-08T07:47:07;5.05;;;2.00;;
50495;SDS011;38806;51.554;5.704;2023-01-08T07:49:07;7.28;;;1.67;;
50495;SDS011;38806;51.554;5.704;2023-01-08T07:51:07;5.88;;;1.70;;
50495;SDS011;38806;51.554;5.704;2023-01-08T07:53:08;3.78;;;1.52;;
50495;SDS011;38806;51.554;5.704;2023-01-08T07:55:08;7.85;;;1.42;;
50495;SDS011;38806;51.554;5.704;2023-01-08T07:57:09;7.13;;;2.97;;
50495;SDS011;38806;51.554;5.704;2023-01-08T07:59:09;8.27;;;3.45;;
50495;SDS011;38806;51.554;5.704;2023-01-08T08:01:09;4.55;;;1.25;;
50495;SDS011;38806;51.554;5.704;2023-01-08T08:03:10;10.52;;;1.70;;
50495;SDS011;38806;51.554;5.704;2023-01-08T08:05:10;7.10;;;2.38;;
50495;SDS011;38806;51.554;5.704;2023-01-08T08:07:10;6.55;;;1.85;;
50495;SDS011;38806;51.554;5.704;2023-01-08T08:09:10;5.35;;;1.30;;
50495;SDS011;38806;51.554;5.704;2023-01-08T08:11:11;7.38;;;2.00;;
50495;SDS011;38806;51.554;5.704;2023-01-08T08:13:11;5.93;;;1.80;;
50495;SDS011;38806;51.554;5.704;2023-01-08T08:15:11;10.27;;;2.40;;
50495;SDS011;38806;51.554;5.704;2023-01-08T08:17:11;7.65;;;1.63;;
50495;SDS011;38806;51.554;5.704;2023-01-08T08:19:12;6.63;;;3.10;;
50495;SDS011;38806;51.554;5.704;2023-01-08T08:21:12;13.15;;;1.98;;
50495;SDS011;38806;51.554;5.704;2023-01-08T08:23:13;6.55;;;2.42;;
50495;SDS011;38806;51.554;5.704;2023-01-08T08:25:13;12.85;;;3.08;;
50495;SDS011;38806;51.554;5.704;2023-01-08T08:27:16;8.68;;;2.03;;
50495;SDS011;38806;51.554;5.704;2023-01-08T08:29:16;6.68;;;1.50;;
50495;SDS011;38806;51.554;5.704;2023-01-08T08:31:17;12.73;;;1.73;;
50495;SDS011;38806;51.554;5.704;2023-01-08T08:33:17;7.03;;;1.63;;
50495;SDS011;38806;51.554;5.704;2023-01-08T08:35:17;7.85;;;2.65;;
50495;SDS011;38806;51.554;5.704;2023-01-08T08:37:17;4.97;;;1.35;;
50495;SDS011;38806;51.554;5.704;2023-01-08T08:39:17;17.98;;;3.85;;
50495;SDS011;38806;51.554;5.704;2023-01-08T08:41:18;11.60;;;2.25;;
50495;SDS011;38806;51.554;5.704;2023-01-08T08:43:18;4.25;;;1.73;;
50495;SDS011;38806;51.554;5.704;2023-01-08T08:45:18;9.18;;;1.55;;
50495;SDS011;38806;51.554;5.704;2023-01-08T08:47:18;8.93;;;2.25;;
50495;SDS011;38806;51.554;5.704;2023-01-08T08:49:18;9.57;;;2.10;;
50495;SDS011;38806;51.554;5.704;2023-01-08T08:51:18;8.18;;;2.28;;
50495;SDS011;38806;51.554;5.704;2023-01-08T08:53:19;7.78;;;2.58;;
50495;SDS011;38806;51.554;5.704;2023-01-08T08:55:19;10.23;;;2.05;;
50495;SDS011;38806;51.554;5.704;2023-01-08T08:57:21;6.60;;;1.33;;
50495;SDS011;38806;51.554;5.704;2023-01-08T08:59:21;5.80;;;1.77;;
50495;SDS011;38806;51.554;5.704;2023-01-08T09:01:22;5.97;;;1.60;;
50495;SDS011;38806;51.554;5.704;2023-01-08T09:03:22;6.22;;;1.83;;
50495;SDS011;38806;51.554;5.704;2023-01-08T09:05:22;10.90;;;4.22;;
50495;SDS011;38806;51.554;5.704;2023-01-08T09:07:22;10.85;;;2.42;;
50495;SDS011;38806;51.554;5.704;2023-01-08T09:09:22;7.93;;;1.80;;
50495;SDS011;38806;51.554;5.704;2023-01-08T09:11:22;8.52;;;2.03;;
50495;SDS011;38806;51.554;5.704;2023-01-08T09:13:23;11.77;;;3.13;;
50495;SDS011;38806;51.554;5.704;2023-01-08T09:15:23;8.50;;;2.97;;
50495;SDS011;38806;51.554;5.704;2023-01-08T09:17:23;6.30;;;1.80;;
50495;SDS011;38806;51.554;5.704;2023-01-08T09:19:24;11.15;;;2.20;;
50495;SDS011;38806;51.554;5.704;2023-01-08T09:21:24;10.65;;;3.25;;
50495;SDS011;38806;51.554;5.704;2023-01-08T09:23:25;15.35;;;3.45;;
50495;SDS011;38806;51.554;5.704;2023-01-08T09:25:25;19.17;;;4.90;;
50495;SDS011;38806;51.554;5.704;2023-01-08T09:27:25;8.07;;;2.00;;
50495;SDS011;38806;51.554;5.704;2023-01-08T09:29:25;6.35;;;2.47;;
50495;SDS011;38806;51.554;5.704;2023-01-08T09:31:26;9.70;;;2.10;;
50495;SDS011;38806;51.554;5.704;2023-01-08T09:33:26;6.90;;;1.83;;
50495;SDS011;38806;51.554;5.704;2023-01-08T09:35:26;9.38;;;2.33;;
50495;SDS011;38806;51.554;5.704;2023-01-08T09:37:27;8.20;;;3.25;;
50495;SDS011;38806;51.554;5.704;2023-01-08T09:39:27;8.75;;;2.20;;
50495;SDS011;38806;51.554;5.704;2023-01-08T09:41:28;11.15;;;2.45;;
50495;SDS011;38806;51.554;5.704;2023-01-08T09:43:30;5.15;;;2.67;;
50495;SDS011;38806;51.554;5.704;2023-01-08T09:45:31;8.18;;;2.72;;
50495;SDS011;38806;51.554;5.704;2023-01-08T09:47:37;7.97;;;1.90;;
50495;SDS011;38806;51.554;5.704;2023-01-08T09:49:41;5.75;;;2.25;;
50495;SDS011;38806;51.554;5.704;2023-01-08T09:51:42;8.27;;;1.98;;
50495;SDS011;38806;51.554;5.704;2023-01-08T09:53:43;15.63;;;2.58;;
50495;SDS011;38806;51.554;5.704;2023-01-08T09:55:44;10.88;;;2.78;;
50495;SDS011;38806;51.554;5.704;2023-01-08T09:57:45;10.32;;;2.38;;
50495;SDS011;38806;51.554;5.704;2023-01-08T09:59:46;8.00;;;1.98;;
50495;SDS011;38806;51.554;5.704;2023-01-08T10:01:49;8.02;;;1.65;;
50495;SDS011;38806;51.554;5.704;2023-01-08T10:05:56;12.52;;;2.22;;
50495;SDS011;38806;51.554;5.704;2023-01-08T10:07:57;7.93;;;2.47;;
50495;SDS011;38806;51.554;5.704;2023-01-08T10:09:57;6.70;;;2.15;;
50495;SDS011;38806;51.554;5.704;2023-01-08T10:11:58;11.55;;;3.00;;
50495;SDS011;38806;51.554;5.704;2023-01-08T10:13:59;6.95;;;1.77;;
50495;SDS011;38806;51.554;5.704;2023-01-08T10:15:59;5.43;;;1.80;;
50495;SDS011;38806;51.554;5.704;2023-01-08T10:18:01;7.68;;;1.85;;
50495;SDS011;38806;51.554;5.704;2023-01-08T10:20:15;6.30;;;2.10;;
50495;SDS011;38806;51.554;5.704;2023-01-08T10:22:18;7.55;;;2.15;;
50495;SDS011;38806;51.554;5.704;2023-01-08T10:24:32;4.88;;;1.52;;
50495;SDS011;38806;51.554;5.704;2023-01-08T10:26:33;6.70;;;1.95;;
50495;SDS011;38806;51.554;5.704;2023-01-08T10:28:37;7.15;;;1.77;;
50495;SDS011;38806;51.554;5.704;2023-01-08T10:30:37;6.32;;;1.80;;
50495;SDS011;38806;51.554;5.704;2023-01-08T10:32:38;2.67;;;1.40;;
50495;SDS011;38806;51.554;5.704;2023-01-08T10:34:46;3.53;;;1.10;;
50495;SDS011;38806;51.554;5.704;2023-01-08T10:36:48;5.07;;;1.23;;
50495;SDS011;38806;51.554;5.704;2023-01-08T10:38:59;6.50;;;1.58;;
50495;SDS011;38806;51.554;5.704;2023-01-08T10:41:02;5.53;;;1.27;;
50495;SDS011;38806;51.554;5.704;2023-01-08T10:43:07;10.90;;;1.30;;
50495;SDS011;38806;51.554;5.704;2023-01-08T10:45:12;7.63;;;2.72;;
50495;SDS011;38806;51.554;5.704;2023-01-08T10:47:15;5.05;;;3.10;;
50495;SDS011;38806;51.554;5.704;2023-01-08T10:49:25;7.95;;;1.08;;
50495;SDS011;38806;51.554;5.704;2023-01-08T10:51:27;12.57;;;1.85;;
50495;SDS011;38806;51.554;5.704;2023-01-08T10:53:27;3.35;;;1.00;;
50495;SDS011;38806;51.554;5.704;2023-01-08T10:55:29;3.90;;;0.88;;
50495;SDS011;38806;51.554;5.704;2023-01-08T10:57:30;5.68;;;0.93;;
50495;SDS011;38806;51.554;5.704;2023-01-08T10:59:34;5.22;;;1.15;;
50495;SDS011;38806;51.554;5.704;2023-01-08T11:01:35;3.35;;;0.90;;
50495;SDS011;38806;51.554;5.704;2023-01-08T11:03:35;5.63;;;1.40;;
50495;SDS011;38806;51.554;5.704;2023-01-08T11:05:36;3.25;;;1.33;;
50495;SDS011;38806;51.554;5.704;2023-01-08T11:07:37;1.70;;;0.55;;
50495;SDS011;38806;51.554;5.704;2023-01-08T11:09:40;3.08;;;0.98;;
50495;SDS011;38806;51.554;5.704;2023-01-08T11:11:40;2.08;;;0.85;;
50495;SDS011;38806;51.554;5.704;2023-01-08T11:13:46;5.15;;;0.75;;
50495;SDS011;38806;51.554;5.704;2023-01-08T11:16:08;3.17;;;1.38;;
50495;SDS011;38806;51.554;5.704;2023-01-08T11:18:18;2.70;;;0.70;;
50495;SDS011;38806;51.554;5.704;2023-01-08T11:20:22;0.80;;;0.45;;
50495;SDS011;38806;51.554;5.704;2023-01-08T11:22:23;1.42;;;0.60;;
50495;SDS011;38806;51.554;5.704;2023-01-08T11:24:31;2.60;;;0.80;;
50495;SDS011;38806;51.554;5.704;2023-01-08T11:26:31;2.45;;;0.60;;
50495;SDS011;38806;51.554;5.704;2023-01-08T11:30:52;3.33;;;0.50;;
50495;SDS011;38806;51.554;5.704;2023-01-08T11:33:01;0.82;;;0.38;;
50495;SDS011;38806;51.554;5.704;2023-01-08T11:35:20;1.48;;;1.20;;
50495;SDS011;38806;51.554;5.704;2023-01-08T11:37:21;0.98;;;0.30;;
50495;SDS011;38806;51.554;5.704;2023-01-08T11:39:22;3.65;;;1.38;;
50495;SDS011;38806;51.554;5.704;2023-01-08T11:41:29;0.70;;;0.30;;
50495;SDS011;38806;51.554;5.704;2023-01-08T11:52:34;1.40;;;0.68;;
50495;SDS011;38806;51.554;5.704;2023-01-08T11:55:14;1.88;;;0.95;;
50495;SDS011;38806;51.554;5.704;2023-01-08T12:07:43;2.47;;;0.90;;
50495;SDS011;38806;51.554;5.704;2023-01-08T12:12:44;4.15;;;1.02;;
50495;SDS011;38806;51.554;5.704;2023-01-08T12:18:55;2.97;;;0.90;;
50495;SDS011;38806;51.554;5.704;2023-01-08T12:33:47;3.55;;;0.80;;
50495;SDS011;38806;51.554;5.704;2023-01-08T12:35:48;4.07;;;1.15;;
50495;SDS011;38806;51.554;5.704;2023-01-08T12:40:04;3.70;;;0.75;;
50495;SDS011;38806;51.554;5.704;2023-01-08T12:42:12;3.95;;;0.90;;
50495;SDS011;38806;51.554;5.704;2023-01-08T12:44:14;3.17;;;1.00;;
50495;SDS011;38806;51.554;5.704;2023-01-08T12:46:15;5.47;;;1.38;;
50495;SDS011;38806;51.554;5.704;2023-01-08T12:48:16;2.30;;;0.70;;
50495;SDS011;38806;51.554;5.704;2023-01-08T12:52:26;4.70;;;1.45;;
50495;SDS011;38806;51.554;5.704;2023-01-08T12:54:40;3.28;;;1.45;;
50495;SDS011;38806;51.554;5.704;2023-01-08T13:01:10;3.63;;;1.27;;
50495;SDS011;38806;51.554;5.704;2023-01-08T13:03:17;2.78;;;0.93;;
50495;SDS011;38806;51.554;5.704;2023-01-08T13:07:21;3.40;;;0.97;;
50495;SDS011;38806;51.554;5.704;2023-01-08T13:09:23;4.47;;;1.17;;
50495;SDS011;38806;51.554;5.704;2023-01-08T13:11:24;4.60;;;1.48;;
50495;SDS011;38806;51.554;5.704;2023-01-08T13:13:32;6.72;;;0.90;;
50495;SDS011;38806;51.554;5.704;2023-01-08T13:15:33;2.60;;;0.95;;
50495;SDS011;38806;51.554;5.704;2023-01-08T13:17:33;2.95;;;0.80;;
50495;SDS011;38806;51.554;5.704;2023-01-08T13:19:40;2.13;;;0.70;;
50495;SDS011;38806;51.554;5.704;2023-01-08T13:21:41;6.05;;;2.00;;